• Join FlightAware (Why Join?)
  • Login
  • US Flag 
04:32AM EDT


 

Airport Tracker/Info


-or-


 

Live Flight TrackerFlight Track Log ✈ N9552R ✈ 30-Apr-2013 ✈ KACB - KMGY

Flight Track Log - Related Links

Times and Time Zones

All times are in EDT time to prevent confusion due to time zone crossing. See the N9552R flight status page for this flight to view local times or setup timezone preferences in your user account.

Time Position Orientation Groundspeed Altitude Reporting Facility
EDT Latitude Longitude Course Direction KTS MPH feet Rate Location/Type
10:56AM 44.9358 -85.2169 196° South 84 97 1,900  Level Minneapolis Center
10:57AM 44.9122 -85.2228 190° South 80 92 2,300 480 Climbing Minneapolis Center
10:58AM 44.8861 -85.2342 197° South 83 96 2,900 480 Climbing Minneapolis Center
10:59AM 44.8639 -85.2414 193° South 83 96 3,300 360 Climbing Minneapolis Center
11:00AM 44.8397 -85.2475 190° South 85 98 3,700 300 Climbing Minneapolis Center
11:01AM 44.8160 -85.2536 196° South  Level FlightAware Approximate
11:02AM 44.8122 -85.2550 191° South 91 105 4,100  Level Minneapolis Center
11:03AM 44.7789 -85.2675 195° South 98 113 4,600 420 Climbing Minneapolis Center
11:04AM 44.7522 -85.2769 194° South 99 114 5,000 420 Climbing Minneapolis Center
11:05AM 44.7250 -85.2864 194° South 100 115 5,500 420 Climbing Minneapolis Center
11:06AM 44.6983 -85.2942 192° South 100 115 5,900 180 Climbing Minneapolis Center
11:07AM 44.6639 -85.3075 195° South 102 117 5,900  Level Minneapolis Center
11:08AM 44.6319 -85.3178 193° South 109 125 5,900  Level Minneapolis Center
11:09AM 44.6011 -85.3294 195° South 113 130 5,900  Level Minneapolis Center
11:10AM 44.5708 -85.3433 198° South 114 131 5,900  Level Minneapolis Center
11:11AM 44.5389 -85.3517 191° South 115 132 5,900  Level Minneapolis Center
11:12AM 44.5083 -85.3592 190° South 114 131 5,900  Level Minneapolis Center
11:13AM 44.4792 -85.3669 191° South 111 128 5,900  Level Minneapolis Center
11:14AM 44.4506 -85.3772 194° South 108 124 5,900  Level Minneapolis Center
11:15AM 44.4200 -85.3900 197° South 111 128 5,900  Level Minneapolis Center
11:16AM 44.3833 -85.4028 194° South 113 130 5,900  Level Minneapolis Center
11:17AM 44.3522 -85.4117 192° South 113 130 5,900  Level Minneapolis Center
11:18AM 44.3214 -85.4208 192° South 113 130 5,900  Level Minneapolis Center
11:19AM 44.2894 -85.4328 195° South 116 133 5,900  Level Minneapolis Center
11:20AM 44.2578 -85.4428 193° South 117 135 5,900  Level Minneapolis Center
11:21AM 44.2275 -85.4508 191° South 113 130 5,900  Level Minneapolis Center
11:22AM 44.2017 -85.4611 196° South 102 117 5,900 -60 Level Minneapolis Center
11:23AM 44.1733 -85.4708 194° South 102 117 5,800 -60 Descending Minneapolis Center
11:24AM 44.1369 -85.4836 194° South 110 127 5,800  Level Minneapolis Center
11:25AM 44.1086 -85.4939 195° South 107 123 5,800  Level Minneapolis Center
11:26AM 44.0794 -85.5025 192° South 107 123 5,800  Level Minneapolis Center
11:27AM 44.0478 -85.5142 195° South 110 127 5,800  Level Minneapolis Center
11:28AM 44.0183 -85.5231 192° South 110 127 5,800  Level Minneapolis Center
11:29AM 43.9872 -85.5319 192° South 111 128 5,800  Level Minneapolis Center
11:30AM 43.9547 -85.5422 193° South 118 136 5,800  Level Minneapolis Center
11:31AM 43.9236 -85.5586 201° Southwest 118 136 5,800  Level Minneapolis Center
11:32AM 43.8925 -85.5719 197° South 118 136 5,800  Level Minneapolis Center
11:33AM 43.8603 -85.5789 189° South 118 136 5,800  Level Minneapolis Center
11:34AM 43.8278 -85.5853 188° South 117 135 5,800 60 Level Minneapolis Center
11:35AM 43.7894 -85.5969 192° South 118 136 6,000 60 Climbing Minneapolis Center
11:36AM 43.7586 -85.6075 194° South 115 132 6,000  Level Minneapolis Center
11:37AM 43.7281 -85.6172 193° South 113 130 6,000  Level Minneapolis Center
11:38AM 43.6967 -85.6281 194° South 115 132 6,000  Level Minneapolis Center
11:39AM 43.6653 -85.6397 195° South 116 133 6,000  Level Minneapolis Center
11:40AM 43.6342 -85.6481 191° South 115 132 6,000  Level Minneapolis Center
11:41AM 43.6050 -85.6567 192° South 110 127 6,000  Level Minneapolis Center
11:43AM 43.5739 -85.6678 195° South 113 130 6,000  Level Minneapolis Center
11:44AM 43.5369 -85.6803 194° South 114 131 6,000  Level Minneapolis Center
11:45AM 43.5058 -85.6894 192° South 114 131 6,000  Level Minneapolis Center
11:46AM 43.4744 -85.6992 193° South 115 132 6,000  Level Minneapolis Center
11:47AM 43.4436 -85.7108 195° South 114 131 6,000  Level Minneapolis Center
11:48AM 43.4144 -85.7272 202° Southwest 113 130 6,000  Level Minneapolis Center
11:49AM 43.3828 -85.7353 190° South 114 131 6,000  Level Minneapolis Center
11:50AM 43.3444 -85.7422 188° South 116 133 6,000  Level Chicago Center
11:51AM 43.3117 -85.7514 192° South 118 136 6,000  Level Chicago Center
11:52AM 43.2808 -85.7608 193° South 116 133 6,000  Level Chicago Center
11:53AM 43.2494 -85.7714 194° South 115 132 6,000  Level Chicago Center
11:54AM 43.2189 -85.7825 195° South 114 131 6,000  Level Chicago Center
11:55AM 43.1886 -85.7928 194° South 113 130 6,000  Level Chicago Center
11:56AM 43.1594 -85.8081 201° Southwest 113 130 6,000  Level Chicago Center
11:57AM 43.1225 -85.8189 192° South 113 130 6,000  Level Chicago Center
11:58AM 43.0908 -85.8250 188° South 115 132 6,000  Level Chicago Center
11:59AM 43.0594 -85.8344 192° South 115 132 6,000  Level Chicago Center
12:00PM 43.0289 -85.8431 192° South 112 129 6,000  Level Chicago Center
12:01PM 42.9986 -85.8531 194° South 111 128 6,000  Level Chicago Center
12:02PM 42.9675 -85.8628 193° South 113 130 6,000  Level Chicago Center
12:03PM 42.9378 -85.8733 195° South 111 128 6,000  Level Chicago Center
12:04PM 42.9069 -85.8828 193° South 112 129 6,000  Level Chicago Center
12:05PM 42.8706 -85.8939 193° South 112 129 6,000  Level Chicago Center
12:06PM 42.8411 -85.9036 194° South 110 127 6,000 -60 Level Chicago Center
12:07PM 42.8119 -85.9183 200° South 111 128 5,900 -60 Descending Chicago Center
12:08PM 42.7825 -85.9297 196° South 111 128 5,900  Level Chicago Center
12:09PM 42.7511 -85.9194 166° South 117 135 5,900  Level Chicago Center
12:10PM 42.7189 -85.9031 160° South 122 140 5,900  Level Chicago Center
12:11PM 42.6867 -85.8897 163° South 122 140 5,900 -180 Level Chicago Center
12:12PM 42.6469 -85.8739 164° South 124 143 5,600 -420 Descending Chicago Center
12:13PM 42.6106 -85.8594 164° South 133 153 5,100 -360 Descending Chicago Center
12:14PM 42.5756 -85.8431 161° South 133 153 4,900 -120 Descending Chicago Center
12:16PM 42.5431 -85.8297 163° South 126 145 4,900  Level Chicago Center
12:17PM 42.5103 -85.8214 169° South 121 139 4,900  Level Chicago Center
12:18PM 42.4792 -85.8108 166° South 118 136 4,900  Level Chicago Center
12:19PM 42.4478 -85.7939 158° South 119 137 4,900  Level Chicago Center
12:20PM 42.4094 -85.7744 159° South 122 140 4,900  Level Chicago Center
12:21PM 42.3764 -85.7589 161° South 125 144 4,900  Level Chicago Center
12:22PM 42.3436 -85.7456 163° South 125 144 4,900  Level Chicago Center
12:23PM 42.3106 -85.7319 163° South 123 142 4,900  Level Chicago Center
12:24PM 42.2750 -85.7181 164° South 123 142 4,900  Level Chicago Center
12:25PM 42.2419 -85.7047 163° South 123 142 4,900  Level Chicago Center
12:26PM 42.2097 -85.6906 162° South 123 142 4,900  Level Chicago Center
12:27PM 42.1769 -85.6792 166° South 122 140 4,900  Level Chicago Center
12:28PM 42.1433 -85.6658 164° South 124 143 4,900  Level Chicago Center
12:29PM 42.1047 -85.6483 161° South 123 142 4,900  Level Chicago Center
12:30PM 42.0708 -85.6344 163° South 125 144 4,900  Level Chicago Center
12:31PM 42.0375 -85.6197 162° South 126 145 4,900  Level Chicago Center
12:32PM 42.0044 -85.6050 162° South 126 145 4,900  Level Chicago Center
12:33PM 41.9692 -85.5911 164° South 130 150 4,900  Level Chicago Center
12:34PM 41.9281 -85.5736 162° South 130 150 4,900  Level Chicago Center
12:35PM 41.8939 -85.5603 164° South 129 148 4,900  Level Chicago Center
12:36PM 41.8586 -85.5517 170° South 128 147 4,900  Level Chicago Center
12:37PM 41.8242 -85.5369 162° South 130 150 4,900 -60 Level Chicago Center
12:38PM 41.7897 -85.5169 157° South 133 153 4,800 -60 Descending Chicago Center
12:39PM 41.7567 -85.4950 154° Southeast 133 153 4,800  Level Chicago Center
12:40PM 41.7175 -85.4703 155° Southeast 131 151 4,900  Climbing Chicago Center
12:41PM 41.6839 -85.4511 157° South 131 151 4,900  Level Chicago Center
12:42PM 41.6508 -85.4306 155° Southeast 131 151 4,900  Level Chicago Center
12:43PM 41.6189 -85.4083 153° Southeast 131 151 4,900  Level Chicago Center
12:44PM 41.5828 -85.3839 153° Southeast 123 142 4,900  Level Chicago Center
12:45PM 41.5514 -85.3675 159° South 123 142 4,900  Level Chicago Center
12:47PM 41.5189 -85.3497 158° South 124 143 4,900  Level Chicago Center
12:48PM 41.4869 -85.3308 156° South 125 144 4,900  Level Chicago Center
12:49PM 41.4556 -85.3117 155° Southeast 125 144 4,900  Level Chicago Center
12:50PM 41.4172 -85.2914 158° South 124 143 4,900  Level Chicago Center
12:51PM 41.3844 -85.2731 157° South 125 144 4,900  Level Chicago Center
12:52PM 41.3528 -85.2514 153° Southeast 127 146 4,900  Level Chicago Center
12:53PM 41.3214 -85.2314 154° Southeast 127 146 4,900  Level Chicago Center
12:54PM 41.2894 -85.2111 154° Southeast 127 146 4,900  Level Chicago Center
12:55PM 41.2581 -85.1919 155° Southeast 126 145 4,900  Level Chicago Center
12:56PM 41.2192 -85.1700 157° South 126 145 4,900  Level Chicago Center
12:57PM 41.1856 -85.1539 160° South 127 146 4,900  Level Chicago Center
12:58PM 41.1525 -85.1358 158° South 128 147 4,900  Level Chicago Center
12:59PM 41.1208 -85.1147 153° Southeast 128 147 4,900  Level Chicago Center
01:00PM 41.0900 -85.0919 151° Southeast 127 146 4,900  Level Chicago Center
01:01PM 41.0578 -85.0728 156° South 127 146 4,900  Level Chicago Center
01:02PM 41.0181 -85.0517 158° South 128 147 4,900  Level Chicago Center
01:03PM 40.9847 -85.0319 156° South 129 148 4,900  Level Chicago Center
01:04PM 40.9517 -85.0114 155° Southeast 130 150 4,900  Level Chicago Center
01:05PM 40.9175 -84.9911 156° South 133 153 4,900  Level Chicago Center
01:06PM 40.8839 -84.9708 155° Southeast 132 152 4,900  Level Chicago Center
01:07PM 40.8497 -84.9514 157° South 133 153 4,900  Level Chicago Center
01:08PM 40.8089 -84.9278 156° South 134 154 4,900  Level Chicago Center
01:09PM 40.7747 -84.9075 156° South 134 154 4,900  Level Chicago Center
01:10PM 40.7408 -84.8858 154° Southeast 135 155 4,900  Level Chicago Center
01:11PM 40.7069 -84.8650 155° Southeast 135 155 4,900  Level Chicago Center
01:12PM 40.6722 -84.8453 157° South 136 157 4,900  Level Chicago Center
01:13PM 40.6369 -84.8253 157° South 136 157 4,900  Level Chicago Center
01:14PM 40.5947 -84.8011 157° South 137 158 4,900  Level Chicago Center
01:15PM 40.5608 -84.7808 156° South 136 157 4,900  Level Chicago Center
01:16PM 40.5258 -84.7619 158° South 136 157 4,900  Level Chicago Center
01:17PM 40.4917 -84.7456 160° South 140 161 4,900  Level Indianapolis Center
01:18PM 40.4589 -84.7253 155° Southeast 130 150 4,900  Level Indianapolis Center
01:19PM 40.4311 -84.7081 155° Southeast 134 154 4,900  Level Indianapolis Center
01:19PM 40.4250 -84.7017 141° Southeast 133 153 4,900  Level Indianapolis Center
01:20PM 40.3956 -84.6839 155° Southeast 136 157 4,900 60 Level Indianapolis Center
01:20PM 40.3897 -84.6811 160° South 135 155 5,000 300 Climbing Indianapolis Center
01:21PM 40.3572 -84.6628 157° South 132 152 5,300 180 Climbing Indianapolis Center
01:23PM 40.3253 -84.6450 157° South 127 146 5,400  Climbing Indianapolis Center
01:24PM 40.2903 -84.6203 152° Southeast 134 154 5,400 -60 Level Indianapolis Center
01:25PM 40.2564 -84.5978 153° Southeast 136 157 5,300  Descending Indianapolis Center
01:26PM 40.2167 -84.5706 152° Southeast 136 157 5,400  Climbing Indianapolis Center
01:27PM 40.1828 -84.5478 153° Southeast 136 157 5,400  Level Indianapolis Center
01:28PM 40.1494 -84.5253 153° Southeast 135 155 5,400 -60 Level Indianapolis Center
01:29PM 40.1144 -84.5039 155° Southeast 136 157 5,300  Descending Indianapolis Center
01:30PM 40.0797 -84.4817 154° Southeast 137 158 5,400  Climbing Indianapolis Center
01:31PM 40.0439 -84.4611 156° South 137 158 5,300 -60 Descending Indianapolis Center
01:32PM 40.0081 -84.4417 157° South 138 159 5,300  Level Indianapolis Center
01:33PM 39.9747 -84.4192 153° Southeast 137 158 5,300  Level Indianapolis Center
01:34PM 39.9358 -84.3917 152° Southeast 136 157 5,300  Level Indianapolis Center
01:35PM 39.9008 -84.3694 154° Southeast 136 157 5,400  Climbing Indianapolis Center
01:36PM 39.8647 -84.3483 156° South 138 159 5,400 -60 Level Indianapolis Center
01:37PM 39.8297 -84.3272 155° Southeast 139 160 5,300 -60 Descending Indianapolis Center
01:38PM 39.7956 -84.3036 152° Southeast 138 159 5,300  Level Indianapolis Center
01:39PM 39.7600 -84.2817 155° Southeast 139 160 5,400  Climbing Indianapolis Center
01:40PM 39.7214 -84.2569 154° Southeast 139 160 5,300 -120 Descending Indianapolis Center